sensor_id;sensor_type;location;lat;lon;timestamp;temperature;humidity
82788;DHT22;72529;51.786;4.662;2024-02-15T00:01:09;14.16;84.22
82788;DHT22;72529;51.786;4.662;2024-02-15T00:03:34;14.16;84.26
82788;DHT22;72529;51.786;4.662;2024-02-15T00:06:01;14.14;84.05
82788;DHT22;72529;51.786;4.662;2024-02-15T00:08:29;14.17;84.08
82788;DHT22;72529;51.786;4.662;2024-02-15T00:10:54;14.18;84.08
82788;DHT22;72529;51.786;4.662;2024-02-15T00:13:20;14.18;84.14
82788;DHT22;72529;51.786;4.662;2024-02-15T00:15:45;14.16;84.09
82788;DHT22;72529;51.786;4.662;2024-02-15T00:18:14;14.14;84.21
82788;DHT22;72529;51.786;4.662;2024-02-15T00:20:39;14.16;84.31
82788;DHT22;72529;51.786;4.662;2024-02-15T00:23:04;14.18;84.26
82788;DHT22;72529;51.786;4.662;2024-02-15T00:25:32;14.17;84.11
82788;DHT22;72529;51.786;4.662;2024-02-15T00:27:57;14.14;84.30
82788;DHT22;72529;51.786;4.662;2024-02-15T00:30:23;14.21;84.21
82788;DHT22;72529;51.786;4.662;2024-02-15T00:32:48;14.23;84.33
82788;DHT22;72529;51.786;4.662;2024-02-15T00:35:13;14.20;84.37
82788;DHT22;72529;51.786;4.662;2024-02-15T00:37:42;14.20;84.37
82788;DHT22;72529;51.786;4.662;2024-02-15T00:40:08;14.23;84.25
82788;DHT22;72529;51.786;4.662;2024-02-15T00:42:34;14.24;84.27
82788;DHT22;72529;51.786;4.662;2024-02-15T00:44:59;14.27;84.19
82788;DHT22;72529;51.786;4.662;2024-02-15T00:47:25;14.27;84.19
82788;DHT22;72529;51.786;4.662;2024-02-15T00:49:50;14.28;84.19
82788;DHT22;72529;51.786;4.662;2024-02-15T00:52:16;14.28;84.06
82788;DHT22;72529;51.786;4.662;2024-02-15T00:54:45;14.25;84.21
82788;DHT22;72529;51.786;4.662;2024-02-15T00:57:11;14.27;84.06
82788;DHT22;72529;51.786;4.662;2024-02-15T00:59:36;14.27;84.22
82788;DHT22;72529;51.786;4.662;2024-02-15T01:02:02;14.27;84.16
82788;DHT22;72529;51.786;4.662;2024-02-15T01:04:29;14.30;84.01
82788;DHT22;72529;51.786;4.662;2024-02-15T01:06:55;14.38;83.86
82788;DHT22;72529;51.786;4.662;2024-02-15T01:09:22;14.35;83.90
82788;DHT22;72529;51.786;4.662;2024-02-15T01:11:47;14.27;83.93
82788;DHT22;72529;51.786;4.662;2024-02-15T01:14:13;14.31;83.87
82788;DHT22;72529;51.786;4.662;2024-02-15T01:16:39;14.27;83.96
82788;DHT22;72529;51.786;4.662;2024-02-15T01:19:04;14.21;84.01
82788;DHT22;72529;51.786;4.662;2024-02-15T01:21:30;14.21;84.16
82788;DHT22;72529;51.786;4.662;2024-02-15T01:23:58;14.25;84.04
82788;DHT22;72529;51.786;4.662;2024-02-15T01:26:26;14.25;83.88
82788;DHT22;72529;51.786;4.662;2024-02-15T01:28:51;14.21;83.91
82788;DHT22;72529;51.786;4.662;2024-02-15T01:31:16;14.20;83.87
82788;DHT22;72529;51.786;4.662;2024-02-15T01:33:43;14.20;83.99
82788;DHT22;72529;51.786;4.662;2024-02-15T01:36:13;14.16;83.97
82788;DHT22;72529;51.786;4.662;2024-02-15T01:38:39;14.12;84.10
82788;DHT22;72529;51.786;4.662;2024-02-15T01:41:05;14.12;83.94
82788;DHT22;72529;51.786;4.662;2024-02-15T01:43:30;14.09;84.04
82788;DHT22;72529;51.786;4.662;2024-02-15T01:45:56;14.12;83.95
82788;DHT22;72529;51.786;4.662;2024-02-15T01:48:24;14.10;83.83
82788;DHT22;72529;51.786;4.662;2024-02-15T01:50:51;14.14;83.77
82788;DHT22;72529;51.786;4.662;2024-02-15T01:53:17;14.12;83.69
82788;DHT22;72529;51.786;4.662;2024-02-15T01:55:43;14.14;83.62
82788;DHT22;72529;51.786;4.662;2024-02-15T01:58:08;14.10;83.61
82788;DHT22;72529;51.786;4.662;2024-02-15T02:00:36;14.12;83.71
82788;DHT22;72529;51.786;4.662;2024-02-15T02:03:05;14.07;83.69
82788;DHT22;72529;51.786;4.662;2024-02-15T02:05:31;14.07;83.83
82788;DHT22;72529;51.786;4.662;2024-02-15T02:07:57;14.02;83.94
82788;DHT22;72529;51.786;4.662;2024-02-15T02:10:29;14.06;83.91
82788;DHT22;72529;51.786;4.662;2024-02-15T02:12:59;14.04;83.94
82788;DHT22;72529;51.786;4.662;2024-02-15T02:15:26;14.03;83.83
82788;DHT22;72529;51.786;4.662;2024-02-15T02:17:52;14.00;83.88
82788;DHT22;72529;51.786;4.662;2024-02-15T02:20:17;14.06;83.92
82788;DHT22;72529;51.786;4.662;2024-02-15T02:22:46;14.07;83.86
82788;DHT22;72529;51.786;4.662;2024-02-15T02:25:13;14.09;83.74
82788;DHT22;72529;51.786;4.662;2024-02-15T02:27:39;14.07;83.87
82788;DHT22;72529;51.786;4.662;2024-02-15T02:30:13;14.04;83.90
82788;DHT22;72529;51.786;4.662;2024-02-15T02:32:47;14.09;83.86
82788;DHT22;72529;51.786;4.662;2024-02-15T02:35:13;14.10;83.75
82788;DHT22;72529;51.786;4.662;2024-02-15T02:37:41;14.14;83.81
82788;DHT22;72529;51.786;4.662;2024-02-15T02:40:08;14.17;83.85
82788;DHT22;72529;51.786;4.662;2024-02-15T02:42:47;14.16;83.78
82788;DHT22;72529;51.786;4.662;2024-02-15T02:45:13;14.20;83.77
82788;DHT22;72529;51.786;4.662;2024-02-15T02:47:38;14.13;84.03
82788;DHT22;72529;51.786;4.662;2024-02-15T02:50:04;14.16;83.97
82788;DHT22;72529;51.786;4.662;2024-02-15T02:52:30;14.14;84.08
82788;DHT22;72529;51.786;4.662;2024-02-15T02:54:55;14.07;84.18
82788;DHT22;72529;51.786;4.662;2024-02-15T02:57:21;14.07;84.42
82788;DHT22;72529;51.786;4.662;2024-02-15T02:59:46;14.04;84.30
82788;DHT22;72529;51.786;4.662;2024-02-15T03:02:12;14.04;84.45
82788;DHT22;72529;51.786;4.662;2024-02-15T03:04:38;14.03;84.43
82788;DHT22;72529;51.786;4.662;2024-02-15T03:07:05;14.07;84.37
82788;DHT22;72529;51.786;4.662;2024-02-15T03:09:31;14.09;84.13
82788;DHT22;72529;51.786;4.662;2024-02-15T03:11:56;14.10;84.21
82788;DHT22;72529;51.786;4.662;2024-02-15T03:14:22;14.10;84.27
82788;DHT22;72529;51.786;4.662;2024-02-15T03:16:48;14.16;84.21
82788;DHT22;72529;51.786;4.662;2024-02-15T03:19:13;14.13;84.52
82788;DHT22;72529;51.786;4.662;2024-02-15T03:21:39;14.12;84.73
82788;DHT22;72529;51.786;4.662;2024-02-15T03:24:05;14.07;84.97
82788;DHT22;72529;51.786;4.662;2024-02-15T03:26:32;14.04;85.11
82788;DHT22;72529;51.786;4.662;2024-02-15T03:29:04;14.07;85.15
82788;DHT22;72529;51.786;4.662;2024-02-15T03:31:30;14.07;85.13
82788;DHT22;72529;51.786;4.662;2024-02-15T03:33:59;14.02;85.43
82788;DHT22;72529;51.786;4.662;2024-02-15T03:36:24;14.00;85.60
82788;DHT22;72529;51.786;4.662;2024-02-15T03:38:50;13.96;85.77
82788;DHT22;72529;51.786;4.662;2024-02-15T03:41:18;13.93;86.07
82788;DHT22;72529;51.786;4.662;2024-02-15T03:43:43;13.93;86.04
82788;DHT22;72529;51.786;4.662;2024-02-15T03:46:08;14.02;85.90
82788;DHT22;72529;51.786;4.662;2024-02-15T03:48:37;13.99;86.08
82788;DHT22;72529;51.786;4.662;2024-02-15T03:51:03;13.99;86.04
82788;DHT22;72529;51.786;4.662;2024-02-15T03:53:29;13.96;86.07
82788;DHT22;72529;51.786;4.662;2024-02-15T03:55:56;13.97;86.31
82788;DHT22;72529;51.786;4.662;2024-02-15T03:58:22;13.91;86.40
82788;DHT22;72529;51.786;4.662;2024-02-15T04:00:47;13.97;86.48
82788;DHT22;72529;51.786;4.662;2024-02-15T04:03:13;13.96;86.52
82788;DHT22;72529;51.786;4.662;2024-02-15T04:05:39;13.93;86.50
82788;DHT22;72529;51.786;4.662;2024-02-15T04:08:04;13.97;86.36
82788;DHT22;72529;51.786;4.662;2024-02-15T04:10:30;14.02;86.37
82788;DHT22;72529;51.786;4.662;2024-02-15T04:12:56;13.99;86.33
82788;DHT22;72529;51.786;4.662;2024-02-15T04:15:23;13.99;86.38
82788;DHT22;72529;51.786;4.662;2024-02-15T04:17:49;14.02;86.41
82788;DHT22;72529;51.786;4.662;2024-02-15T04:20:21;13.94;86.41
82788;DHT22;72529;51.786;4.662;2024-02-15T04:22:46;13.97;86.38
82788;DHT22;72529;51.786;4.662;2024-02-15T04:25:12;13.93;86.51
82788;DHT22;72529;51.786;4.662;2024-02-15T04:27:41;13.91;86.57
82788;DHT22;72529;51.786;4.662;2024-02-15T04:30:07;13.99;86.49
82788;DHT22;72529;51.786;4.662;2024-02-15T04:32:33;13.99;86.23
82788;DHT22;72529;51.786;4.662;2024-02-15T04:35:00;13.97;86.40
82788;DHT22;72529;51.786;4.662;2024-02-15T04:37:26;14.00;86.46
82788;DHT22;72529;51.786;4.662;2024-02-15T04:40:00;13.99;86.19
82788;DHT22;72529;51.786;4.662;2024-02-15T04:42:35;14.03;86.21
82788;DHT22;72529;51.786;4.662;2024-02-15T04:45:04;13.99;86.34
82788;DHT22;72529;51.786;4.662;2024-02-15T04:47:34;14.02;86.21
82788;DHT22;72529;51.786;4.662;2024-02-15T04:49:59;14.07;85.94
82788;DHT22;72529;51.786;4.662;2024-02-15T04:52:25;14.02;86.04
82788;DHT22;72529;51.786;4.662;2024-02-15T04:54:50;13.99;86.17
82788;DHT22;72529;51.786;4.662;2024-02-15T04:57:16;13.99;86.31
82788;DHT22;72529;51.786;4.662;2024-02-15T04:59:42;13.96;86.43
82788;DHT22;72529;51.786;4.662;2024-02-15T05:02:12;14.03;86.16
82788;DHT22;72529;51.786;4.662;2024-02-15T05:04:38;14.03;86.18
82788;DHT22;72529;51.786;4.662;2024-02-15T05:07:03;13.97;86.49
82788;DHT22;72529;51.786;4.662;2024-02-15T05:09:29;13.99;86.33
82788;DHT22;72529;51.786;4.662;2024-02-15T05:11:59;14.04;86.20
82788;DHT22;72529;51.786;4.662;2024-02-15T05:14:24;14.02;86.00
82788;DHT22;72529;51.786;4.662;2024-02-15T05:16:51;13.96;86.11
82788;DHT22;72529;51.786;4.662;2024-02-15T05:19:17;13.89;86.35
82788;DHT22;72529;51.786;4.662;2024-02-15T05:21:44;13.87;86.44
82788;DHT22;72529;51.786;4.662;2024-02-15T05:24:15;13.83;86.57
82788;DHT22;72529;51.786;4.662;2024-02-15T05:26:43;13.86;86.58
82788;DHT22;72529;51.786;4.662;2024-02-15T05:29:12;13.83;86.63
82788;DHT22;72529;51.786;4.662;2024-02-15T05:31:38;13.79;86.58
82788;DHT22;72529;51.786;4.662;2024-02-15T05:34:06;13.80;86.69
82788;DHT22;72529;51.786;4.662;2024-02-15T05:36:36;13.73;86.89
82788;DHT22;72529;51.786;4.662;2024-02-15T05:39:02;13.73;87.07
82788;DHT22;72529;51.786;4.662;2024-02-15T05:41:28;13.80;86.86
82788;DHT22;72529;51.786;4.662;2024-02-15T05:43:53;13.74;87.03
82788;DHT22;72529;51.786;4.662;2024-02-15T05:46:19;13.72;87.14
82788;DHT22;72529;51.786;4.662;2024-02-15T05:48:48;13.72;87.20
82788;DHT22;72529;51.786;4.662;2024-02-15T05:51:14;13.74;87.25
82788;DHT22;72529;51.786;4.662;2024-02-15T05:53:40;13.76;87.31
82788;DHT22;72529;51.786;4.662;2024-02-15T05:56:08;13.82;87.06
82788;DHT22;72529;51.786;4.662;2024-02-15T05:58:36;13.79;87.19
82788;DHT22;72529;51.786;4.662;2024-02-15T06:01:03;13.79;87.23
82788;DHT22;72529;51.786;4.662;2024-02-15T06:03:33;13.79;87.13
82788;DHT22;72529;51.786;4.662;2024-02-15T06:06:02;13.87;86.98
82788;DHT22;72529;51.786;4.662;2024-02-15T06:08:32;13.91;86.98
82788;DHT22;72529;51.786;4.662;2024-02-15T06:10:58;13.87;87.00
82788;DHT22;72529;51.786;4.662;2024-02-15T06:13:25;13.87;86.96
82788;DHT22;72529;51.786;4.662;2024-02-15T06:15:50;13.89;86.93
82788;DHT22;72529;51.786;4.662;2024-02-15T06:20:47;13.69;87.66
82788;DHT22;72529;51.786;4.662;2024-02-15T06:23:16;13.69;87.73
82788;DHT22;72529;51.786;4.662;2024-02-15T06:25:42;13.73;87.69
82788;DHT22;72529;51.786;4.662;2024-02-15T06:28:07;13.76;87.50
82788;DHT22;72529;51.786;4.662;2024-02-15T06:30:45;13.77;87.62
82788;DHT22;72529;51.786;4.662;2024-02-15T06:33:29;13.77;87.50
82788;DHT22;72529;51.786;4.662;2024-02-15T06:36:13;13.73;87.48
82788;DHT22;72529;51.786;4.662;2024-02-15T06:38:57;13.79;87.39
82788;DHT22;72529;51.786;4.662;2024-02-15T06:41:42;13.77;87.54
82788;DHT22;72529;51.786;4.662;2024-02-15T06:44:07;13.82;87.31
82788;DHT22;72529;51.786;4.662;2024-02-15T06:46:33;13.82;87.37
82788;DHT22;72529;51.786;4.662;2024-02-15T06:48:58;13.77;87.40
82788;DHT22;72529;51.786;4.662;2024-02-15T06:51:24;13.83;87.12
82788;DHT22;72529;51.786;4.662;2024-02-15T06:53:50;13.80;87.21
82788;DHT22;72529;51.786;4.662;2024-02-15T06:56:16;13.83;87.18
82788;DHT22;72529;51.786;4.662;2024-02-15T06:58:43;13.80;87.00
82788;DHT22;72529;51.786;4.662;2024-02-15T07:01:08;13.76;87.07
82788;DHT22;72529;51.786;4.662;2024-02-15T07:03:34;13.76;87.25
82788;DHT22;72529;51.786;4.662;2024-02-15T07:05:59;13.77;87.17
82788;DHT22;72529;51.786;4.662;2024-02-15T07:08:25;13.76;87.26
82788;DHT22;72529;51.786;4.662;2024-02-15T07:10:50;13.80;87.07
82788;DHT22;72529;51.786;4.662;2024-02-15T07:13:17;13.77;87.17
82788;DHT22;72529;51.786;4.662;2024-02-15T07:15:43;13.76;87.06
82788;DHT22;72529;51.786;4.662;2024-02-15T07:18:09;13.83;86.90
82788;DHT22;72529;51.786;4.662;2024-02-15T07:20:37;13.83;86.97
82788;DHT22;72529;51.786;4.662;2024-02-15T07:23:02;13.74;87.09
82788;DHT22;72529;51.786;4.662;2024-02-15T07:25:29;13.87;86.91
82788;DHT22;72529;51.786;4.662;2024-02-15T07:27:54;13.80;87.07
82788;DHT22;72529;51.786;4.662;2024-02-15T07:30:22;13.76;87.01
82788;DHT22;72529;51.786;4.662;2024-02-15T07:32:49;13.82;87.11
82788;DHT22;72529;51.786;4.662;2024-02-15T07:35:14;13.83;87.02
82788;DHT22;72529;51.786;4.662;2024-02-15T07:37:51;13.89;86.85
82788;DHT22;72529;51.786;4.662;2024-02-15T07:40:18;13.84;86.96
82788;DHT22;72529;51.786;4.662;2024-02-15T07:42:43;13.83;86.96
82788;DHT22;72529;51.786;4.662;2024-02-15T07:45:09;13.87;87.06
82788;DHT22;72529;51.786;4.662;2024-02-15T07:47:36;13.90;86.80
82788;DHT22;72529;51.786;4.662;2024-02-15T07:50:02;13.91;86.80
82788;DHT22;72529;51.786;4.662;2024-02-15T07:52:28;13.90;86.92
82788;DHT22;72529;51.786;4.662;2024-02-15T07:54:54;13.94;86.76
82788;DHT22;72529;51.786;4.662;2024-02-15T07:57:20;13.91;86.59
82788;DHT22;72529;51.786;4.662;2024-02-15T07:59:45;13.86;86.92
82788;DHT22;72529;51.786;4.662;2024-02-15T08:02:13;13.89;86.83
82788;DHT22;72529;51.786;4.662;2024-02-15T08:04:42;13.93;86.92
82788;DHT22;72529;51.786;4.662;2024-02-15T08:07:09;13.87;86.90
82788;DHT22;72529;51.786;4.662;2024-02-15T08:09:39;13.86;86.95
82788;DHT22;72529;51.786;4.662;2024-02-15T08:12:04;13.90;86.79
82788;DHT22;72529;51.786;4.662;2024-02-15T08:14:30;13.93;86.79
82788;DHT22;72529;51.786;4.662;2024-02-15T08:16:56;13.90;86.69
82788;DHT22;72529;51.786;4.662;2024-02-15T08:19:22;13.97;86.49
82788;DHT22;72529;51.786;4.662;2024-02-15T08:21:48;13.93;86.71
82788;DHT22;72529;51.786;4.662;2024-02-15T08:24:16;13.97;86.33
82788;DHT22;72529;51.786;4.662;2024-02-15T08:26:42;13.94;86.67
82788;DHT22;72529;51.786;4.662;2024-02-15T08:29:08;13.93;86.54
82788;DHT22;72529;51.786;4.662;2024-02-15T08:31:34;13.91;86.67
82788;DHT22;72529;51.786;4.662;2024-02-15T08:34:04;13.87;86.92
82788;DHT22;72529;51.786;4.662;2024-02-15T08:36:35;13.89;86.89
82788;DHT22;72529;51.786;4.662;2024-02-15T08:39:01;13.91;86.86
82788;DHT22;72529;51.786;4.662;2024-02-15T08:41:27;13.97;86.61
82788;DHT22;72529;51.786;4.662;2024-02-15T08:43:53;13.97;86.77
82788;DHT22;72529;51.786;4.662;2024-02-15T08:46:19;13.99;86.67
82788;DHT22;72529;51.786;4.662;2024-02-15T08:48:47;14.00;86.57
82788;DHT22;72529;51.786;4.662;2024-02-15T08:51:13;14.03;86.53
82788;DHT22;72529;51.786;4.662;2024-02-15T08:53:38;14.02;86.50
82788;DHT22;72529;51.786;4.662;2024-02-15T08:56:04;14.13;86.08
82788;DHT22;72529;51.786;4.662;2024-02-15T08:58:30;14.10;85.90
82788;DHT22;72529;51.786;4.662;2024-02-15T09:00:58;14.09;86.23
82788;DHT22;72529;51.786;4.662;2024-02-15T09:03:24;14.13;85.84
82788;DHT22;72529;51.786;4.662;2024-02-15T09:05:50;14.06;86.15
82788;DHT22;72529;51.786;4.662;2024-02-15T09:08:16;14.09;86.28
82788;DHT22;72529;51.786;4.662;2024-02-15T09:10:47;14.13;86.07
82788;DHT22;72529;51.786;4.662;2024-02-15T09:13:12;14.20;85.42
82788;DHT22;72529;51.786;4.662;2024-02-15T09:15:38;14.24;85.24
82788;DHT22;72529;51.786;4.662;2024-02-15T09:18:04;14.31;85.18
82788;DHT22;72529;51.786;4.662;2024-02-15T09:20:30;14.25;85.39
82788;DHT22;72529;51.786;4.662;2024-02-15T09:22:57;14.35;85.03
82788;DHT22;72529;51.786;4.662;2024-02-15T09:25:23;14.30;85.13
82788;DHT22;72529;51.786;4.662;2024-02-15T09:27:49;14.40;85.00
82788;DHT22;72529;51.786;4.662;2024-02-15T09:30:16;14.34;85.06
82788;DHT22;72529;51.786;4.662;2024-02-15T09:32:42;14.33;85.22
82788;DHT22;72529;51.786;4.662;2024-02-15T09:35:10;14.41;85.04
82788;DHT22;72529;51.786;4.662;2024-02-15T09:37:47;14.47;84.59
82788;DHT22;72529;51.786;4.662;2024-02-15T09:40:18;14.45;84.58
82788;DHT22;72529;51.786;4.662;2024-02-15T09:42:44;14.51;84.45
82788;DHT22;72529;51.786;4.662;2024-02-15T09:45:12;14.55;84.41
82788;DHT22;72529;51.786;4.662;2024-02-15T09:47:39;14.58;84.30
82788;DHT22;72529;51.786;4.662;2024-02-15T09:50:12;14.55;84.11
82788;DHT22;72529;51.786;4.662;2024-02-15T09:52:42;14.49;84.55
82788;DHT22;72529;51.786;4.662;2024-02-15T09:55:10;14.57;84.88
82788;DHT22;72529;51.786;4.662;2024-02-15T09:57:42;14.63;84.95
82788;DHT22;72529;51.786;4.662;2024-02-15T10:00:09;14.74;84.95
82788;DHT22;72529;51.786;4.662;2024-02-15T10:02:40;14.78;84.81
82788;DHT22;72529;51.786;4.662;2024-02-15T10:05:06;14.92;83.92
82788;DHT22;72529;51.786;4.662;2024-02-15T10:07:32;14.82;84.36
82788;DHT22;72529;51.786;4.662;2024-02-15T10:10:15;14.86;84.48
82788;DHT22;72529;51.786;4.662;2024-02-15T10:12:44;14.95;84.26
82788;DHT22;72529;51.786;4.662;2024-02-15T10:15:09;14.88;84.22
82788;DHT22;72529;51.786;4.662;2024-02-15T10:17:35;14.93;84.53
82788;DHT22;72529;51.786;4.662;2024-02-15T10:20:05;15.03;84.08
82788;DHT22;72529;51.786;4.662;2024-02-15T10:22:31;15.08;84.43
82788;DHT22;72529;51.786;4.662;2024-02-15T10:25:13;15.10;84.57
82788;DHT22;72529;51.786;4.662;2024-02-15T10:27:40;15.19;84.37
82788;DHT22;72529;51.786;4.662;2024-02-15T10:30:19;15.16;83.60
82788;DHT22;72529;51.786;4.662;2024-02-15T10:32:46;15.05;83.94
82788;DHT22;72529;51.786;4.662;2024-02-15T10:35:22;15.03;84.24
82788;DHT22;72529;51.786;4.662;2024-02-15T10:37:49;15.06;84.34
82788;DHT22;72529;51.786;4.662;2024-02-15T10:40:19;15.06;84.28
82788;DHT22;72529;51.786;4.662;2024-02-15T10:42:47;15.03;84.64
82788;DHT22;72529;51.786;4.662;2024-02-15T10:45:15;15.06;84.97
82788;DHT22;72529;51.786;4.662;2024-02-15T10:47:45;15.08;84.78
82788;DHT22;72529;51.786;4.662;2024-02-15T10:50:13;15.19;84.62
82788;DHT22;72529;51.786;4.662;2024-02-15T10:52:47;15.26;84.42
82788;DHT22;72529;51.786;4.662;2024-02-15T10:58:06;15.40;84.73
82788;DHT22;72529;51.786;4.662;2024-02-15T11:00:35;15.44;84.68
82788;DHT22;72529;51.786;4.662;2024-02-15T11:03:07;15.49;84.66
82788;DHT22;72529;51.786;4.662;2024-02-15T11:05:37;15.59;84.34
82788;DHT22;72529;51.786;4.662;2024-02-15T11:08:08;15.51;84.27
82788;DHT22;72529;51.786;4.662;2024-02-15T11:10:38;15.60;84.29
82788;DHT22;72529;51.786;4.662;2024-02-15T11:13:10;15.63;84.46
82788;DHT22;72529;51.786;4.662;2024-02-15T11:18:01;15.89;83.92
82788;DHT22;72529;51.786;4.662;2024-02-15T11:23:02;15.93;83.81
82788;DHT22;72529;51.786;4.662;2024-02-15T11:25:35;15.93;83.43
82788;DHT22;72529;51.786;4.662;2024-02-15T11:30:46;16.04;82.91
82788;DHT22;72529;51.786;4.662;2024-02-15T11:33:33;16.07;82.75
82788;DHT22;72529;51.786;4.662;2024-02-15T11:36:07;16.08;83.04
82788;DHT22;72529;51.786;4.662;2024-02-15T11:38:34;16.17;82.55
82788;DHT22;72529;51.786;4.662;2024-02-15T11:41:04;16.22;82.38
82788;DHT22;72529;51.786;4.662;2024-02-15T11:43:52;16.22;82.51
82788;DHT22;72529;51.786;4.662;2024-02-15T11:46:22;16.32;82.48
82788;DHT22;72529;51.786;4.662;2024-02-15T11:48:51;16.44;81.43
82788;DHT22;72529;51.786;4.662;2024-02-15T11:54:08;16.47;81.25
82788;DHT22;72529;51.786;4.662;2024-02-15T11:56:55;16.54;80.66
82788;DHT22;72529;51.786;4.662;2024-02-15T11:59:41;16.59;80.07
82788;DHT22;72529;51.786;4.662;2024-02-15T12:02:38;16.73;79.91
82788;DHT22;72529;51.786;4.662;2024-02-15T12:05:22;16.90;79.81
82788;DHT22;72529;51.786;4.662;2024-02-15T12:08:06;17.12;78.19
82788;DHT22;72529;51.786;4.662;2024-02-15T12:10:58;17.30;77.29
82788;DHT22;72529;51.786;4.662;2024-02-15T12:13:41;17.40;77.51
82788;DHT22;72529;51.786;4.662;2024-02-15T12:16:25;17.59;76.93
82788;DHT22;72529;51.786;4.662;2024-02-15T12:19:09;17.77;77.22
82788;DHT22;72529;51.786;4.662;2024-02-15T12:21:38;18.05;76.88
82788;DHT22;72529;51.786;4.662;2024-02-15T12:24:07;18.26;75.08
82788;DHT22;72529;51.786;4.662;2024-02-15T12:26:33;18.35;74.82
82788;DHT22;72529;51.786;4.662;2024-02-15T12:29:00;18.52;74.84
82788;DHT22;72529;51.786;4.662;2024-02-15T12:31:26;18.56;74.47
82788;DHT22;72529;51.786;4.662;2024-02-15T12:34:02;18.59;73.59
82788;DHT22;72529;51.786;4.662;2024-02-15T12:36:35;18.41;74.09
82788;DHT22;72529;51.786;4.662;2024-02-15T12:39:05;18.36;73.90
82788;DHT22;72529;51.786;4.662;2024-02-15T12:41:40;18.21;73.32
82788;DHT22;72529;51.786;4.662;2024-02-15T12:44:07;18.02;73.75
82788;DHT22;72529;51.786;4.662;2024-02-15T12:46:42;17.97;74.03
82788;DHT22;72529;51.786;4.662;2024-02-15T12:49:30;18.09;73.77
82788;DHT22;72529;51.786;4.662;2024-02-15T12:55:13;18.14;71.53
82788;DHT22;72529;51.786;4.662;2024-02-15T12:57:43;18.16;73.52
82788;DHT22;72529;51.786;4.662;2024-02-15T13:00:15;18.12;73.06
82788;DHT22;72529;51.786;4.662;2024-02-15T13:02:47;18.09;71.86
82788;DHT22;72529;51.786;4.662;2024-02-15T13:05:15;18.02;72.53
82788;DHT22;72529;51.786;4.662;2024-02-15T13:07:41;17.98;73.14
82788;DHT22;72529;51.786;4.662;2024-02-15T13:10:07;17.94;74.05
82788;DHT22;72529;51.786;4.662;2024-02-15T13:12:35;18.00;73.04
82788;DHT22;72529;51.786;4.662;2024-02-15T13:15:05;18.01;72.23
82788;DHT22;72529;51.786;4.662;2024-02-15T13:17:33;17.92;72.80
82788;DHT22;72529;51.786;4.662;2024-02-15T13:20:02;17.81;72.89
82788;DHT22;72529;51.786;4.662;2024-02-15T13:22:33;17.66;72.40
82788;DHT22;72529;51.786;4.662;2024-02-15T13:25:01;17.66;73.77
82788;DHT22;72529;51.786;4.662;2024-02-15T13:27:28;17.59;73.45
82788;DHT22;72529;51.786;4.662;2024-02-15T13:29:54;17.55;73.36
82788;DHT22;72529;51.786;4.662;2024-02-15T13:32:20;17.57;73.16
82788;DHT22;72529;51.786;4.662;2024-02-15T13:34:48;17.63;73.77
82788;DHT22;72529;51.786;4.662;2024-02-15T13:37:20;17.77;73.22
82788;DHT22;72529;51.786;4.662;2024-02-15T13:39:49;17.97;73.71
82788;DHT22;72529;51.786;4.662;2024-02-15T13:42:15;18.12;73.02
82788;DHT22;72529;51.786;4.662;2024-02-15T13:44:45;18.15;72.74
82788;DHT22;72529;51.786;4.662;2024-02-15T13:47:12;18.26;71.75
82788;DHT22;72529;51.786;4.662;2024-02-15T13:49:38;18.34;72.11
82788;DHT22;72529;51.786;4.662;2024-02-15T13:52:05;18.26;71.74
82788;DHT22;72529;51.786;4.662;2024-02-15T13:54:32;18.19;72.09
82788;DHT22;72529;51.786;4.662;2024-02-15T13:57:02;18.14;72.28
82788;DHT22;72529;51.786;4.662;2024-02-15T13:59:28;18.12;72.04
82788;DHT22;72529;51.786;4.662;2024-02-15T14:01:54;18.02;72.44
82788;DHT22;72529;51.786;4.662;2024-02-15T14:04:20;18.06;71.40
82788;DHT22;72529;51.786;4.662;2024-02-15T14:06:47;17.98;72.23
82788;DHT22;72529;51.786;4.662;2024-02-15T14:09:13;17.81;72.57
82788;DHT22;72529;51.786;4.662;2024-02-15T14:11:39;17.77;72.35
82788;DHT22;72529;51.786;4.662;2024-02-15T14:14:05;17.78;73.05
82788;DHT22;72529;51.786;4.662;2024-02-15T14:16:31;17.69;73.22
82788;DHT22;72529;51.786;4.662;2024-02-15T14:18:57;17.63;73.26
82788;DHT22;72529;51.786;4.662;2024-02-15T14:21:23;17.61;73.15
82788;DHT22;72529;51.786;4.662;2024-02-15T14:23:48;17.64;73.03
82788;DHT22;72529;51.786;4.662;2024-02-15T14:26:15;17.64;72.82
82788;DHT22;72529;51.786;4.662;2024-02-15T14:28:41;17.66;73.08
82788;DHT22;72529;51.786;4.662;2024-02-15T14:31:10;17.70;73.75
82788;DHT22;72529;51.786;4.662;2024-02-15T14:33:54;17.69;73.02
82788;DHT22;72529;51.786;4.662;2024-02-15T14:36:19;17.70;72.61
82788;DHT22;72529;51.786;4.662;2024-02-15T14:38:45;17.69;72.67
82788;DHT22;72529;51.786;4.662;2024-02-15T14:41:12;17.73;73.20
82788;DHT22;72529;51.786;4.662;2024-02-15T14:43:37;17.74;72.70
82788;DHT22;72529;51.786;4.662;2024-02-15T14:46:03;17.87;71.60
82788;DHT22;72529;51.786;4.662;2024-02-15T14:48:34;17.75;71.64
82788;DHT22;72529;51.786;4.662;2024-02-15T14:51:00;17.71;71.51
82788;DHT22;72529;51.786;4.662;2024-02-15T14:53:26;17.74;71.66
82788;DHT22;72529;51.786;4.662;2024-02-15T14:55:54;17.69;71.89
82788;DHT22;72529;51.786;4.662;2024-02-15T14:58:20;17.69;71.81
82788;DHT22;72529;51.786;4.662;2024-02-15T15:00:47;17.71;71.97
82788;DHT22;72529;51.786;4.662;2024-02-15T15:03:13;17.70;71.54
82788;DHT22;72529;51.786;4.662;2024-02-15T15:05:39;17.81;71.96
82788;DHT22;72529;51.786;4.662;2024-02-15T15:08:23;17.84;72.19
82788;DHT22;72529;51.786;4.662;2024-02-15T15:11:08;17.90;72.00
82788;DHT22;72529;51.786;4.662;2024-02-15T15:13:53;18.02;71.27
82788;DHT22;72529;51.786;4.662;2024-02-15T15:16:18;17.98;70.99
82788;DHT22;72529;51.786;4.662;2024-02-15T15:18:49;17.94;72.04
82788;DHT22;72529;51.786;4.662;2024-02-15T15:21:20;17.92;72.21
82788;DHT22;72529;51.786;4.662;2024-02-15T15:23:49;17.97;71.70
82788;DHT22;72529;51.786;4.662;2024-02-15T15:26:22;17.98;71.80
82788;DHT22;72529;51.786;4.662;2024-02-15T15:28:48;17.91;71.28
82788;DHT22;72529;51.786;4.662;2024-02-15T15:31:14;17.84;71.84
82788;DHT22;72529;51.786;4.662;2024-02-15T15:33:41;17.90;72.20
82788;DHT22;72529;51.786;4.662;2024-02-15T15:36:07;17.85;72.27
82788;DHT22;72529;51.786;4.662;2024-02-15T15:38:32;17.95;71.42
82788;DHT22;72529;51.786;4.662;2024-02-15T15:40:58;17.88;71.38
82788;DHT22;72529;51.786;4.662;2024-02-15T15:43:29;17.84;71.24
82788;DHT22;72529;51.786;4.662;2024-02-15T15:45:54;17.80;70.32
82788;DHT22;72529;51.786;4.662;2024-02-15T15:48:20;17.74;69.82
82788;DHT22;72529;51.786;4.662;2024-02-15T15:50:45;17.63;70.49
82788;DHT22;72529;51.786;4.662;2024-02-15T15:53:13;17.69;68.14
82788;DHT22;72529;51.786;4.662;2024-02-15T15:55:38;17.64;68.46